createdAt,value
2018-05-26T00:01:28.230Z,18.20
2018-05-26T00:04:51.502Z,18.20
2018-05-26T00:08:15.232Z,18.10
2018-05-26T00:11:38.572Z,18.00
2018-05-26T00:15:04.175Z,18.10
2018-05-26T00:18:27.604Z,18.00
2018-05-26T00:21:51.047Z,18.00
2018-05-26T00:25:14.503Z,18.00
2018-05-26T00:28:37.942Z,18.20
2018-05-26T00:32:01.406Z,18.20
2018-05-26T00:35:25.480Z,18.10
2018-05-26T00:38:50.480Z,18.10
2018-05-26T00:42:13.812Z,18.10
2018-05-26T00:45:37.201Z,18.00
2018-05-26T00:49:00.620Z,17.90
2018-05-26T00:52:24.090Z,17.90
2018-05-26T00:55:47.513Z,17.90
2018-05-26T00:59:10.901Z,17.90
2018-05-26T01:02:34.384Z,17.90
2018-05-26T01:05:59.979Z,17.90
2018-05-26T01:09:23.414Z,17.90
2018-05-26T01:12:46.814Z,17.90
2018-05-26T01:16:10.264Z,17.80
2018-05-26T01:19:33.659Z,17.80
2018-05-26T01:22:57.680Z,17.70
2018-05-26T01:26:21.446Z,17.80
2018-05-26T01:29:46.935Z,17.90
2018-05-26T01:33:10.567Z,17.80
2018-05-26T01:36:34.165Z,17.70
2018-05-26T01:39:57.510Z,17.70
2018-05-26T01:43:20.919Z,17.60
2018-05-26T01:46:44.341Z,17.50
2018-05-26T01:50:07.802Z,17.40
2018-05-26T01:53:31.276Z,17.50
2018-05-26T01:56:54.680Z,17.40
2018-05-26T02:00:18.090Z,17.40
2018-05-26T02:03:41.689Z,17.40
2018-05-26T02:07:07.054Z,17.30
2018-05-26T02:10:30.467Z,17.30
2018-05-26T02:13:53.895Z,17.20
2018-05-26T02:17:17.301Z,17.20
2018-05-26T02:20:42.843Z,17.30
2018-05-26T02:24:06.337Z,17.30
2018-05-26T02:27:29.723Z,17.20
2018-05-26T02:30:53.119Z,17.20
2018-05-26T02:34:16.553Z,17.20
2018-05-26T02:37:40.147Z,17.30
2018-05-26T02:41:03.412Z,17.30
2018-05-26T02:44:26.683Z,17.30
2018-05-26T02:47:52.570Z,17.20
2018-05-26T02:51:16.643Z,17.20
2018-05-26T02:54:41.379Z,17.20
2018-05-26T02:58:04.842Z,17.30
2018-05-26T03:01:28.306Z,17.30
2018-05-26T03:04:57.203Z,17.30
2018-05-26T03:08:26.957Z,17.30
2018-05-26T03:11:56.802Z,17.30
2018-05-26T03:15:20.174Z,17.20
2018-05-26T03:18:44.414Z,17.30
2018-05-26T03:22:07.693Z,17.30
2018-05-26T03:25:33.212Z,17.20
2018-05-26T03:28:56.665Z,17.20
2018-05-26T03:32:21.549Z,17.00
2018-05-26T03:35:45.655Z,17.10
2018-05-26T03:39:10.528Z,17.10
2018-05-26T03:42:34.817Z,17.00
2018-05-26T03:46:00.184Z,17.00
2018-05-26T03:49:23.748Z,17.00
2018-05-26T03:52:47.065Z,17.00
2018-05-26T03:56:30.251Z,17.20
2018-05-26T04:00:11.562Z,17.20
2018-05-26T04:03:35.109Z,17.10
2018-05-26T04:06:58.496Z,17.10
2018-05-26T04:10:21.942Z,17.20
2018-05-26T04:13:45.558Z,17.10
2018-05-26T04:17:08.843Z,17.10
2018-05-26T04:20:32.291Z,17.10
2018-05-26T04:23:57.775Z,17.30
2018-05-26T04:27:21.217Z,17.20
2018-05-26T04:30:46.730Z,17.40
2018-05-26T04:34:10.303Z,17.40
2018-05-26T04:37:35.788Z,17.50
2018-05-26T04:40:59.192Z,17.50
2018-05-26T04:44:22.635Z,17.50
2018-05-26T04:47:46.088Z,17.50
2018-05-26T04:51:09.527Z,17.40
2018-05-26T04:54:32.986Z,17.40
2018-05-26T04:57:56.583Z,17.50
2018-05-26T05:01:20.049Z,17.50
2018-05-26T05:04:43.373Z,17.60
2018-05-26T05:08:06.763Z,17.60
2018-05-26T05:11:30.193Z,17.50
2018-05-26T05:14:55.730Z,17.60
2018-05-26T05:18:19.149Z,17.60
2018-05-26T05:21:42.770Z,17.60
2018-05-26T05:25:06.092Z,17.50
2018-05-26T05:28:31.605Z,17.70
2018-05-26T05:31:54.992Z,17.70
2018-05-26T05:35:18.473Z,17.80
2018-05-26T05:38:41.946Z,17.80
2018-05-26T05:42:05.383Z,17.90
2018-05-26T05:45:28.958Z,18.00
2018-05-26T05:48:52.456Z,18.10
2018-05-26T05:52:15.747Z,18.10
2018-05-26T05:55:39.302Z,18.10
2018-05-26T05:59:02.573Z,18.10
2018-05-26T06:02:26.001Z,18.10
2018-05-26T06:05:49.421Z,18.20
2018-05-26T06:09:12.861Z,18.40
2018-05-26T06:12:36.588Z,18.50
2018-05-26T06:16:01.911Z,18.60
2018-05-26T06:19:25.323Z,18.70
2018-05-26T06:22:48.802Z,18.80
2018-05-26T06:26:12.220Z,19.00
2018-05-26T06:29:36.323Z,19.10
2018-05-26T06:33:02.491Z,19.30
2018-05-26T06:36:27.348Z,19.50
2018-05-26T06:39:51.507Z,19.50
2018-05-26T06:43:14.966Z,19.60
2018-05-26T06:46:39.671Z,19.70
2018-05-26T06:50:03.098Z,19.60
2018-05-26T06:53:26.596Z,19.70
2018-05-26T06:56:50.046Z,19.80
2018-05-26T07:00:13.462Z,19.90
2018-05-26T07:03:36.889Z,20.00
2018-05-26T07:07:00.311Z,20.20
2018-05-26T07:10:23.777Z,20.40
2018-05-26T07:13:47.237Z,20.50
2018-05-26T07:17:10.729Z,20.50
2018-05-26T07:20:34.149Z,20.60
2018-05-26T07:23:57.586Z,20.80
2018-05-26T07:27:21.029Z,21.10
2018-05-26T07:30:44.451Z,21.00
2018-05-26T07:34:08.039Z,21.00
2018-05-26T07:37:33.368Z,21.20
2018-05-26T07:40:58.969Z,21.20
2018-05-26T07:44:22.367Z,21.20
2018-05-26T07:47:45.803Z,21.30
2018-05-26T07:51:09.284Z,21.30
2018-05-26T07:54:32.750Z,21.30
2018-05-26T07:57:56.325Z,21.40
2018-05-26T08:01:19.623Z,21.60
2018-05-26T08:04:42.997Z,21.60
2018-05-26T08:08:07.175Z,21.60
2018-05-26T08:11:31.994Z,21.60
2018-05-26T08:14:55.381Z,21.70
2018-05-26T08:18:19.895Z,21.90
2018-05-26T08:21:43.308Z,22.10
2018-05-26T08:25:08.857Z,22.50
2018-05-26T08:28:32.361Z,22.50
2018-05-26T08:31:55.810Z,22.60
2018-05-26T08:35:19.436Z,22.60
2018-05-26T08:38:43.176Z,22.80
2018-05-26T08:42:08.227Z,22.80
2018-05-26T08:45:33.477Z,22.80
2018-05-26T08:48:58.999Z,23.00
2018-05-26T08:52:22.433Z,23.00
2018-05-26T08:55:45.862Z,23.20
2018-05-26T08:59:09.327Z,23.30
2018-05-26T09:02:32.770Z,23.40
2018-05-26T09:05:56.182Z,23.40
2018-05-26T09:09:19.753Z,23.50
2018-05-26T09:12:43.024Z,23.60
2018-05-26T09:16:06.506Z,23.90
2018-05-26T09:19:29.932Z,24.10
2018-05-26T09:22:53.312Z,24.20
2018-05-26T09:26:16.781Z,24.20
2018-05-26T09:29:40.266Z,24.40
2018-05-26T09:33:03.655Z,24.30
2018-05-26T09:36:29.165Z,24.50
2018-05-26T09:39:52.573Z,24.50
2018-05-26T09:43:16.003Z,24.70
2018-05-26T09:46:39.468Z,24.50
2018-05-26T09:50:02.870Z,24.50
2018-05-26T09:53:26.317Z,24.40
2018-05-26T09:56:49.845Z,24.50
2018-05-26T10:00:13.199Z,24.80
2018-05-26T10:03:36.557Z,24.80
2018-05-26T10:07:02.257Z,25.20
2018-05-26T10:10:25.634Z,25.20
2018-05-26T10:13:48.942Z,25.10
2018-05-26T10:17:14.485Z,25.30
2018-05-26T10:20:37.955Z,25.30
2018-05-26T10:24:01.375Z,25.50
2018-05-26T10:27:24.818Z,25.80
2018-05-26T10:30:50.355Z,25.70
2018-05-26T10:34:15.815Z,25.70
2018-05-26T10:37:39.408Z,25.70
2018-05-26T10:41:02.732Z,25.90
2018-05-26T10:44:26.271Z,25.90
2018-05-26T10:47:49.613Z,25.80
2018-05-26T10:51:16.649Z,26.10
2018-05-26T10:54:41.018Z,26.10
2018-05-26T10:58:06.386Z,26.30
2018-05-26T11:01:30.270Z,26.50
2018-05-26T11:04:57.339Z,27.00
2018-05-26T11:08:21.386Z,27.00
2018-05-26T11:11:44.840Z,27.10
2018-05-26T11:15:08.322Z,27.10
2018-05-26T11:18:31.717Z,27.30
2018-05-26T11:21:55.140Z,27.50
2018-05-26T11:25:18.620Z,27.60
2018-05-26T11:28:42.004Z,27.60
2018-05-26T11:32:05.426Z,27.70
2018-05-26T11:35:29.285Z,27.80
2018-05-26T11:38:54.376Z,27.80
2018-05-26T11:42:17.864Z,27.70
2018-05-26T11:45:41.326Z,27.70
2018-05-26T11:49:04.823Z,27.50
2018-05-26T11:52:28.172Z,27.40
2018-05-26T11:55:51.636Z,27.30
2018-05-26T11:59:15.172Z,27.40
2018-05-26T12:02:38.524Z,27.50
2018-05-26T12:06:04.088Z,28.00
2018-05-26T12:09:27.550Z,28.00
2018-05-26T12:12:51.245Z,28.20
2018-05-26T12:16:14.720Z,28.20
2018-05-26T12:19:38.220Z,28.40
2018-05-26T12:23:01.744Z,28.00
2018-05-26T12:26:25.284Z,28.20
2018-05-26T12:29:49.166Z,28.30
2018-05-26T12:33:14.243Z,28.30
2018-05-26T12:36:37.804Z,28.10
2018-05-26T12:40:01.451Z,27.80
2018-05-26T12:43:26.685Z,28.00
2018-05-26T12:46:50.379Z,28.50
2018-05-26T12:50:14.508Z,28.30
2018-05-26T12:53:39.563Z,28.40
2018-05-26T12:57:03.005Z,28.40
2018-05-26T13:00:27.762Z,28.40
2018-05-26T13:03:52.131Z,28.70
2018-05-26T13:07:15.697Z,29.20
2018-05-26T13:10:40.997Z,29.30
2018-05-26T13:14:05.255Z,29.20
2018-05-26T13:17:29.102Z,29.00
2018-05-26T13:20:52.409Z,29.10
2018-05-26T13:24:15.954Z,29.20
2018-05-26T13:27:39.340Z,29.00
2018-05-26T13:31:02.777Z,29.00
2018-05-26T13:34:26.273Z,29.00
2018-05-26T13:37:49.775Z,28.70
2018-05-26T13:41:13.338Z,28.40
2018-05-26T13:44:39.053Z,28.60
2018-05-26T13:48:02.501Z,28.50
2018-05-26T13:51:26.086Z,28.70
2018-05-26T13:54:51.638Z,29.60
2018-05-26T13:58:15.072Z,29.60
2018-05-26T14:01:38.500Z,29.80
2018-05-26T14:05:01.998Z,30.00
2018-05-26T14:08:25.475Z,29.90
2018-05-26T14:11:48.959Z,29.60
2018-05-26T14:15:12.373Z,29.30
2018-05-26T14:18:37.901Z,28.90
2018-05-26T14:22:01.339Z,28.90
2018-05-26T14:25:24.795Z,28.80
2018-05-26T14:28:48.257Z,29.00
2018-05-26T14:32:11.653Z,29.10
2018-05-26T14:35:37.198Z,29.40
2018-05-26T14:39:03.167Z,29.70
2018-05-26T14:42:28.276Z,29.60
2018-05-26T14:45:51.723Z,29.60
2018-05-26T14:49:16.629Z,30.00
2018-05-26T14:52:40.670Z,30.40
2018-05-26T14:56:06.197Z,30.90
2018-05-26T14:59:33.217Z,31.00
2018-05-26T15:02:57.314Z,30.80
2018-05-26T15:06:22.791Z,31.00
2018-05-26T15:09:48.312Z,31.00
2018-05-26T15:13:14.091Z,31.60
2018-05-26T15:16:39.353Z,31.50
2018-05-26T15:20:02.869Z,31.60
2018-05-26T15:23:28.342Z,31.80
2018-05-26T15:26:54.023Z,31.00
2018-05-26T15:30:17.521Z,31.00
2018-05-26T15:33:42.807Z,31.30
2018-05-26T15:37:06.436Z,30.90
2018-05-26T15:40:29.703Z,31.30
2018-05-26T15:43:55.293Z,31.80
2018-05-26T15:47:18.757Z,31.80
2018-05-26T15:50:42.207Z,31.80
2018-05-26T15:54:05.708Z,31.30
2018-05-26T15:57:29.093Z,31.10
2018-05-26T16:00:52.563Z,31.40
2018-05-26T16:04:15.987Z,31.40
2018-05-26T16:07:39.470Z,31.30
2018-05-26T16:11:02.869Z,31.40
2018-05-26T16:14:26.334Z,31.20
2018-05-26T16:17:49.802Z,30.80
2018-05-26T16:21:15.305Z,31.20
2018-05-26T16:24:38.747Z,31.10
2018-05-26T16:28:02.262Z,30.90
2018-05-26T16:31:25.605Z,31.00
2018-05-26T16:34:49.033Z,31.30
2018-05-26T16:38:14.735Z,31.30
2018-05-26T16:41:40.142Z,30.90
2018-05-26T16:45:03.688Z,30.90
2018-05-26T16:48:29.067Z,30.20
2018-05-26T16:51:54.747Z,30.00
2018-05-26T16:55:18.137Z,30.00
2018-05-26T16:58:41.709Z,29.90
2018-05-26T17:02:04.995Z,29.80
2018-05-26T17:05:28.435Z,29.80
2018-05-26T17:08:51.877Z,29.50
2018-05-26T17:12:15.273Z,29.10
2018-05-26T17:15:38.733Z,29.00
2018-05-26T17:19:02.223Z,28.90
2018-05-26T17:22:27.866Z,28.80
2018-05-26T17:25:51.165Z,28.80
2018-05-26T17:29:14.631Z,28.70
2018-05-26T17:32:38.114Z,28.60
2018-05-26T17:36:01.503Z,28.50
2018-05-26T17:39:27.040Z,28.40
2018-05-26T17:42:50.861Z,28.40
2018-05-26T17:46:15.985Z,28.20
2018-05-26T17:49:39.425Z,28.10
2018-05-26T17:53:02.872Z,28.10
2018-05-26T17:56:26.777Z,28.00
2018-05-26T17:59:52.430Z,27.70
2018-05-26T18:03:15.763Z,27.60
2018-05-26T18:06:39.351Z,27.40
2018-05-26T18:10:02.857Z,27.20
2018-05-26T18:14:00.685Z,27.00
2018-05-26T18:17:25.329Z,26.90
2018-05-26T18:20:48.977Z,26.70
2018-05-26T18:24:14.310Z,26.60
2018-05-26T18:27:37.740Z,26.50
2018-05-26T18:31:01.436Z,26.30
2018-05-26T18:34:27.047Z,26.10
2018-05-26T18:37:52.307Z,26.00
2018-05-26T18:41:15.852Z,25.90
2018-05-26T18:44:39.545Z,25.80
2018-05-26T18:48:04.848Z,25.70
2018-05-26T18:51:28.584Z,25.60
2018-05-26T18:54:53.773Z,25.60
2018-05-26T18:58:17.277Z,25.50
2018-05-26T19:01:40.997Z,25.50
2018-05-26T19:05:06.309Z,25.40
2018-05-26T19:08:29.818Z,25.40
2018-05-26T19:11:53.209Z,25.30
2018-05-26T19:15:16.687Z,25.20
2018-05-26T19:18:42.302Z,25.10
2018-05-26T19:22:05.815Z,25.10
2018-05-26T19:25:31.365Z,25.00
2018-05-26T19:28:56.297Z,25.00
2018-05-26T19:32:20.521Z,24.90
2018-05-26T19:35:44.155Z,24.80
2018-05-26T19:39:07.849Z,24.80
2018-05-26T19:42:31.437Z,24.70
2018-05-26T19:45:56.752Z,24.70
2018-05-26T19:49:20.347Z,24.70
2018-05-26T19:52:43.803Z,24.60
2018-05-26T19:56:07.191Z,24.40
2018-05-26T19:59:32.926Z,24.10
2018-05-26T20:02:56.515Z,24.10
2018-05-26T20:06:19.927Z,23.90
2018-05-26T20:09:45.821Z,23.70
2018-05-26T20:13:09.933Z,23.60
2018-05-26T20:16:33.596Z,23.50
2018-05-26T20:19:57.672Z,23.50
2018-05-26T20:24:15.763Z,23.50
2018-05-26T20:27:41.331Z,23.50
2018-05-26T20:31:06.773Z,23.50
2018-05-26T20:34:32.653Z,23.50
2018-05-26T20:37:58.951Z,23.40
2018-05-26T20:41:23.919Z,23.50
2018-05-26T20:44:49.344Z,23.60
2018-05-26T20:48:14.931Z,23.60
2018-05-26T20:51:40.588Z,23.50
2018-05-26T20:55:06.109Z,23.40
2018-05-26T20:58:31.694Z,23.30
2018-05-26T21:01:56.309Z,23.30
2018-05-26T21:05:21.486Z,23.30
2018-05-26T21:08:47.224Z,23.30
2018-05-26T21:12:12.757Z,23.30
2018-05-26T21:15:38.353Z,23.30
2018-05-26T21:19:03.898Z,23.20
2018-05-26T21:22:27.427Z,23.20
2018-05-26T21:25:52.842Z,23.10
2018-05-26T21:29:17.671Z,23.10
2018-05-26T21:32:42.291Z,23.10
2018-05-26T21:36:06.259Z,23.10
2018-05-26T21:39:32.080Z,23.10
2018-05-26T21:42:55.617Z,23.10
2018-05-26T21:46:19.321Z,23.10
2018-05-26T21:49:44.957Z,23.00
2018-05-26T21:53:08.497Z,23.00
2018-05-26T22:04:31.573Z,22.70
2018-05-26T22:07:55.713Z,22.60
2018-05-26T22:11:19.133Z,22.60
2018-05-26T22:14:45.191Z,22.50
2018-05-26T22:18:10.148Z,22.40
2018-05-26T22:21:34.124Z,22.40
2018-05-26T22:24:59.201Z,22.30
2018-05-26T22:28:22.731Z,22.20
2018-05-26T22:31:46.091Z,22.20
2018-05-26T22:35:09.548Z,22.20
2018-05-26T22:38:33.003Z,22.10
2018-05-26T22:41:56.541Z,22.10
2018-05-26T22:45:19.977Z,22.00
2018-05-26T22:48:43.590Z,21.90
2018-05-26T22:52:06.967Z,21.80
2018-05-26T22:55:32.499Z,21.80
2018-05-26T22:58:57.609Z,21.80
2018-05-26T23:02:21.645Z,21.70
2018-05-26T23:05:47.218Z,21.50
2018-05-26T23:09:10.811Z,21.50
2018-05-26T23:12:34.303Z,21.40
2018-05-26T23:15:59.876Z,21.30
2018-05-26T23:19:23.322Z,21.30
2018-05-26T23:22:48.873Z,21.00
2018-05-26T23:26:12.328Z,21.00
2018-05-26T23:29:35.886Z,20.90
2018-05-26T23:32:59.396Z,21.00
2018-05-26T23:36:22.777Z,20.70
2018-05-26T23:39:46.705Z,20.70
2018-05-26T23:43:11.722Z,20.60
2018-05-26T23:46:35.246Z,20.70
2018-05-26T23:49:58.642Z,20.60
2018-05-26T23:53:22.158Z,20.50
2018-05-26T23:56:45.460Z,20.30
